Data for 02/09/2013

Time Sea-Level Adjusted Pressure Absolute Pressure Temperature Relative Humidity Dew Point   
(mb) (inHg) (mb) (inHg) (C) (F) (%) (C) (F)
00:05 1013 29.91 842 24.86 -5.4 22.3 76 -9 15.7
00:10 1013 29.91 842 24.86 -5 22.9 76 -8.7 16.4
00:15 1013 29.91 842 24.86 -4.6 23.7 75 -8.5 16.8
00:20 1013 29.91 842 24.86 -4.1 24.6 72 -8.5 16.7
00:25 1013 29.91 842 24.86 -4.4 24.1 74 -8.3 17
00:30 1013 29.91 842 24.86 -4.2 24.5 71 -8.6 16.5
00:35 1013 29.91 842 24.86 -4.2 24.4 72 -8.6 16.5
00:40 1013 29.91 842 24.86 -4.6 23.8 72 -8.9 16
00:45 1013 29.91 842 24.86 -4.5 23.9 72 -8.7 16.3
00:50 1013 29.91 842 24.86 -4.5 23.9 72 -8.8 16.1
00:55 1013 29.91 842 24.86 -4.7 23.5 72 -9 15.8
01:00 1013 29.91 842 24.86 -5.1 22.9 73 -9.1 15.6
01:05 1013 29.91 842 24.86 -5.3 22.5 76 -8.8 16.1
01:10 1013 29.91 842 24.86 -5.1 22.8 75 -8.9 16
01:15 1013 29.91 842 24.86 -5.1 22.8 76 -8.6 16.4
01:20 1013 29.91 842 24.86 -5.3 22.4 77 -8.7 16.3
01:25 1013 29.91 842 24.86 -5.1 22.8 77 -8.5 16.6
01:30 1013 29.91 842 24.86 -5.1 22.8 77 -8.6 16.6
01:35 1013 29.91 842 24.86 -5 22.9 77 -8.5 16.6
01:40 1013 29.91 842 24.86 -5.2 22.7 76 -8.7 16.3
01:45 1013 29.91 842 24.86 -5 23 75 -8.7 16.3
01:50 1013 29.91 842 24.86 -5.1 22.8 76 -8.8 16.2
01:55 1013 29.91 842 24.86 -5.3 22.5 77 -8.7 16.3
02:00 1013 29.91 842 24.86 -5.3 22.5 77 -8.7 16.4
02:05 1013 29.91 842 24.86 -5.2 22.7 76 -8.7 16.3
02:10 1013 29.91 842 24.86 -5.5 22.1 78 -8.8 16.1
02:15 1013 29.91 842 24.86 -5.6 21.9 78 -8.9 16
02:20 1013 29.91 842 24.86 -5.4 22.2 78 -8.7 16.3
02:25 1013 29.91 842 24.86 -5.3 22.5 77 -8.8 16.2
02:30 1013 29.91 842 24.86 -5.2 22.6 77 -8.7 16.4
02:35 1013 29.91 842 24.86 -5.2 22.6 77 -8.6 16.5
02:40 1013 29.91 842 24.86 -5 23.1 74 -8.9 16
02:45 1013 29.91 842 24.86 -5.3 22.4 75 -9.1 15.5
02:50 1013 29.91 842 24.86 -5.8 21.5 76 -9.4 15.1
02:55 1013 29.91 842 24.86 -5.9 21.4 75 -9.6 14.8
03:00 1013 29.91 842 24.86 -5.9 21.4 76 -9.5 14.9
03:05 1013 29.91 842 24.86 -6.6 20.1 78 -9.8 14.4
03:10 1013 29.91 842 24.86 -6.7 20 79 -9.7 14.5
03:15 1013 29.91 842 24.86 -6.1 21 76 -9.6 14.7
03:20 1013 29.91 842 24.86 -6 21.1 77 -9.5 14.9
03:25 1013 29.91 842 24.86 -5.9 21.3 78 -9.2 15.5
03:30 1013 29.91 842 24.86 -5.8 21.6 77 -9.1 15.6
03:35 1013 29.91 842 24.86 -5.6 21.9 76 -9.2 15.4
03:40 1013 29.91 842 24.86 -5.7 21.7 78 -9 15.9
03:45 1013 29.91 842 24.86 -5.8 21.5 77 -9.2 15.5
03:50 1013 29.91 842 24.86 -5.9 21.4 77 -9.2 15.4
03:55 1013 29.91 842 24.86 -5.8 21.5 78 -9.1 15.6
04:00 1013 29.91 842 24.86 -5.7 21.8 78 -9 15.8
04:05 1013 29.91 842 24.86 -5.6 21.9 78 -8.9 16
04:10 1013 29.91 842 24.86 -5.5 22 78 -8.8 16.2
04:15 1013 29.91 842 24.86 -5.3 22.4 76 -8.9 16.1
04:20 1013 29.91 842 24.86 -5.3 22.4 77 -8.7 16.3
04:25 1012 29.88 842 24.86 -5.5 22.1 77 -8.9 16
04:30 1012 29.88 842 24.86 -5.7 21.7 78 -8.9 16
04:35 1012 29.88 842 24.86 -5.7 21.7 78 -8.9 15.9
04:40 1012 29.88 842 24.86 -5.8 21.6 78 -9 15.8
04:45 1012 29.88 842 24.86 -5.7 21.7 78 -9 15.9
04:50 1012 29.88 842 24.86 -5.7 21.8 78 -8.9 15.9
04:55 1012 29.88 842 24.86 -5.5 22 77 -8.9 15.9
05:00 1012 29.88 842 24.86 -5.5 22.1 78 -8.8 16.2
05:05 1012 29.88 842 24.86 -5.6 22 78 -8.8 16.1
05:10 1012 29.88 842 24.86 -5.3 22.4 77 -8.8 16.2
05:15 1012 29.88 842 24.86 -5 23 76 -8.5 16.6
05:20 1012 29.88 842 24.86 -5 23 76 -8.6 16.5
05:25 1012 29.88 842 24.86 -5 23 77 -8.5 16.7
05:30 1012 29.88 842 24.86 -5.2 22.7 77 -8.6 16.6
05:35 1012 29.88 842 24.86 -5.4 22.3 78 -8.6 16.6
05:40 1012 29.88 842 24.86 -5.4 22.2 79 -8.5 16.7
05:45 1012 29.88 842 24.86 -5.3 22.4 79 -8.4 16.8
05:50 1013 29.91 842 24.86 -5.3 22.4 79 -8.4 16.9
05:55 1012 29.88 842 24.86 -5.2 22.7 79 -8.3 17.1
06:00 1012 29.88 842 24.86 -5.1 22.9 79 -8.1 17.3
06:05 1012 29.88 842 24.86 -5.1 22.9 79 -8.1 17.3
06:10 1012 29.88 842 24.86 -5 22.9 79 -8.1 17.4
06:15 1012 29.88 842 24.86 -4.9 23.2 79 -8 17.6
06:20 1012 29.88 842 24.86 -4.8 23.4 79 -7.8 17.9
06:25 1012 29.88 842 24.86 -4.7 23.6 78 -7.9 17.8
06:30 1012 29.88 842 24.86 -4.6 23.7 79 -7.8 18
06:35 1012 29.88 842 24.86 -4.6 23.7 79 -7.7 18.2
06:40 1012 29.88 842 24.86 -4.6 23.6 79 -7.7 18.1
06:45 1012 29.88 842 24.86 -4.6 23.8 79 -7.6 18.3
06:50 1012 29.88 842 24.86 -4.5 23.9 79 -7.6 18.4
06:55 1012 29.88 842 24.86 -4.7 23.6 81 -7.5 18.5
07:00 1012 29.88 842 24.86 -5 23.1 83 -7.5 18.6
07:05 1012 29.88 841 24.83 -5 23 82 -7.6 18.4
07:10 1012 29.88 841 24.83 -4.9 23.1 82 -7.5 18.5
07:15 1012 29.88 841 24.83 -4.9 23.2 83 -7.4 18.7
07:20 1012 29.88 841 24.83 -5 23 84 -7.4 18.7
07:25 1012 29.88 841 24.83 -5.3 22.5 84 -7.6 18.4
07:30 1012 29.88 841 24.83 -5.2 22.6 84 -7.5 18.5
07:35 1012 29.88 841 24.83 -5.4 22.3 84 -7.7 18.1
07:40 1012 29.88 841 24.83 -5.4 22.3 82 -8 17.7
07:45 1012 29.88 841 24.83 -5.5 22.2 82 -8 17.6
07:50 1012 29.88 841 24.83 -5.5 22.1 82 -8.1 17.4
07:55 1012 29.88 841 24.83 -5.4 22.2 82 -8 17.6
08:00 1012 29.88 841 24.83 -5.4 22.4 82 -8 17.6
08:05 1012 29.88 841 24.83 -5.5 22.1 82 -8.1 17.4
08:10 1012 29.88 841 24.83 -5.6 21.9 84 -7.9 17.7
08:15 1012 29.88 841 24.83 -5.5 22 84 -7.8 18
08:20 1012 29.88 841 24.83 -5.4 22.3 83 -7.8 18
08:25 1012 29.88 841 24.83 -5.5 22.1 84 -7.8 18
08:30 1012 29.88 841 24.83 -5.4 22.3 84 -7.8 18
08:35 1012 29.88 841 24.83 -5.4 22.3 83 -7.7 18.1
08:40 1012 29.88 841 24.83 -5.4 22.2 84 -7.8 18
08:45 1012 29.88 841 24.83 -5.4 22.3 84 -7.8 18
08:50 1012 29.88 841 24.83 -5.4 22.2 84 -7.8 17.9
08:55 1012 29.88 841 24.83 -5.4 22.3 84 -7.7 18.1
09:00 1012 29.88 841 24.83 -5.2 22.7 82 -7.7 18.1
09:05 1012 29.88 841 24.83 -5.2 22.6 83 -7.7 18.2
09:10 1012 29.88 841 24.83 -5.2 22.7 83 -7.6 18.4
09:15 1012 29.88 841 24.83 -5.2 22.7 84 -7.4 18.6
09:20 1012 29.88 841 24.83 -5.1 22.8 84 -7.4 18.8
09:25 1012 29.88 841 24.83 -5 23 84 -7.3 18.9
09:30 1012 29.88 842 24.86 -4.9 23.2 84 -7.2 19.1
09:35 1012 29.88 842 24.86 -4.7 23.6 84 -7 19.5
09:40 1012 29.88 841 24.83 -4.5 23.9 82 -7.1 19.3
09:45 1012 29.88 841 24.83 -4.6 23.7 83 -7.1 19.2
09:50 1012 29.88 842 24.86 -4.5 23.8 83 -7.1 19.3
09:55 1012 29.88 842 24.86 -4.5 23.9 84 -6.9 19.6
10:00 1012 29.88 842 24.86 -4.4 24 84 -6.8 19.8
10:05 1012 29.88 842 24.86 -4.3 24.3 84 -6.6 20.1
10:10 1012 29.88 842 24.86 -4 24.8 82 -6.6 20.2
10:15 1012 29.88 842 24.86 -3.9 25.1 82 -6.4 20.4
10:20 1012 29.88 842 24.86 -3.9 25 82 -6.5 20.4
10:25 1012 29.88 842 24.86 -3.9 25.1 81 -6.6 20.1
10:30 1012 29.88 842 24.86 -4 24.8 81 -6.8 19.8
10:35 1012 29.88 842 24.86 -4.1 24.6 82 -6.7 19.9
10:40 1012 29.88 842 24.86 -3.9 25 81 -6.6 20.1
10:45 1012 29.88 842 24.86 -3.7 25.3 80 -6.7 20
10:50 1012 29.88 842 24.86 -3.7 25.4 79 -6.7 19.9
10:55 1012 29.88 842 24.86 -3.8 25.1 81 -6.6 20.2
11:00 1012 29.88 842 24.86 -3.7 25.3 82 -6.5 20.4
11:05 1012 29.88 842 24.86 -3.6 25.6 82 -6.3 20.7
11:10 1012 29.88 842 24.86 -3.7 25.3 82 -6.4 20.5
11:15 1012 29.88 842 24.86 -4 24.9 83 -6.5 20.3
11:20 1012 29.88 842 24.86 -3.9 24.9 82 -6.5 20.2
11:25 1012 29.88 842 24.86 -3.9 25 82 -6.5 20.4
11:30 1012 29.88 842 24.86 -3.6 25.4 81 -6.5 20.3
11:35 1012 29.88 842 24.86 -3.4 25.8 80 -6.4 20.6
11:40 1012 29.88 841 24.83 -3.3 26.2 79 -6.4 20.4
11:45 1012 29.88 841 24.83 -3.1 26.3 77 -6.5 20.2
11:50 1012 29.88 841 24.83 -3.2 26.3 78 -6.5 20.3
11:55 1012 29.88 842 24.86 -3 26.6 76 -6.7 20
12:00 1012 29.88 842 24.86 -3.1 26.3 75 -6.9 19.5
12:05 1012 29.88 842 24.86 -3 26.6 73 -7.2 19
12:10 1012 29.88 842 24.86 -3 26.6 73 -7.2 19.1
12:15 1012 29.88 842 24.86 -3 26.6 72 -7.3 18.8
12:20 1012 29.88 842 24.86 -3.1 26.4 72 -7.4 18.7
12:25 1012 29.88 842 24.86 -3.1 26.5 73 -7.3 18.8
12:30 1012 29.88 842 24.86 -3 26.6 72 -7.3 18.8
12:35 1012 29.88 842 24.86 -3.1 26.4 73 -7.3 18.8
12:40 1012 29.88 842 24.86 -3.1 26.4 73 -7.3 18.9
12:45 1012 29.88 842 24.86 -2.9 26.7 72 -7.3 18.8
12:50 1012 29.88 841 24.83 -3 26.6 71 -7.5 18.6
12:55 1012 29.88 842 24.86 -2.8 27 69 -7.6 18.3
13:00 1012 29.88 841 24.83 -2.9 26.9 70 -7.6 18.4
13:05 1012 29.88 841 24.83 -3 26.6 70 -7.6 18.3
13:10 1012 29.88 841 24.83 -2.8 26.9 71 -7.3 18.8
13:15 1012 29.88 841 24.83 -2.4 27.6 69 -7.4 18.7
13:20 1012 29.88 841 24.83 -2.2 28.1 70 -7 19.4
13:25 1012 29.88 841 24.83 -1.7 29 66 -7.3 18.9
13:30 1012 29.88 841 24.83 -1.2 29.9 64 -7.1 19.2
13:35 1012 29.88 841 24.83 -1.3 29.7 64 -7.3 18.9
13:40 1012 29.88 841 24.83 -1.4 29.4 63 -7.6 18.3
13:45 1012 29.88 841 24.83 -1.5 29.2 62 -7.9 17.7
13:50 1012 29.88 841 24.83 -1.6 29.1 63 -7.9 17.8
13:55 1012 29.88 841 24.83 -1.3 29.6 60 -8.2 17.2
14:00 1012 29.88 841 24.83 -0.6 30.9 57 -8 17.5
14:05 1012 29.88 841 24.83 -0.5 31.1 57 -7.9 17.8
14:10 1012 29.88 841 24.83 -0.9 30.4 57 -8.3 17
14:15 1012 29.88 841 24.83 -1.2 29.8 58 -8.6 16.6
14:20 1011 29.85 841 24.83 -1.2 29.9 57 -8.7 16.3
14:25 1011 29.85 841 24.83 -0.2 31.7 51 -9.1 15.5
14:30 1011 29.85 841 24.83 -0.2 31.6 52 -8.9 16.1
14:35 1011 29.85 841 24.83 -1.1 30.1 58 -8.4 16.9
14:40 1011 29.85 840 24.81 -1.3 29.7 56 -8.9 16
14:45 1011 29.85 840 24.81 -1.5 29.3 59 -8.5 16.7
14:50 1011 29.85 840 24.81 -1.9 28.5 59 -8.9 16
14:55 1011 29.85 840 24.81 -1.3 29.7 55 -9.1 15.6
15:00 1011 29.85 840 24.81 -1.6 29.2 57 -8.9 15.9
15:05 1011 29.85 840 24.81 -1.8 28.8 57 -9.3 15.2
15:10 1011 29.85 840 24.81 -1.6 29.1 57 -9.2 15.5
15:15 1011 29.85 840 24.81 -1.7 29 57 -9.1 15.6
15:20 1011 29.85 840 24.81 -1 30.1 54 -9.3 15.3
15:25 1010 29.83 840 24.81 -1 30.3 54 -9 15.7
15:30 1010 29.83 840 24.81 -0.8 30.5 55 -8.7 16.3
15:35 1010 29.83 840 24.81 -1.5 29.3 57 -9 15.8
15:40 1010 29.83 839 24.78 -1.4 29.5 56 -9.1 15.5
15:45 1010 29.83 839 24.78 -1.5 29.2 57 -9 15.8
15:50 1010 29.83 839 24.78 -1.2 29.8 55 -9.1 15.7
15:55 1010 29.83 839 24.78 -0.9 30.4 55 -8.9 16
16:00 1010 29.83 839 24.78 -0.2 31.6 49 -9.7 14.5
16:05 1010 29.83 839 24.78 0.7 33.3 46 -9.7 14.6
16:10 1010 29.83 839 24.78 1 33.8 46 -9.2 15.4
16:15 1010 29.83 839 24.78 0.9 33.5 46 -9.4 15
16:20 1010 29.83 839 24.78 0.8 33.4 46 -9.6 14.7
16:25 1010 29.83 839 24.78 1 33.7 46 -9.5 14.8
16:30 1010 29.83 839 24.78 1.1 34 46 -9.2 15.4
16:35 1010 29.83 839 24.78 0.4 32.8 48 -9.3 15.2
16:40 1010 29.83 839 24.78 0.8 33.5 46 -9.7 14.6
16:45 1010 29.83 839 24.78 0.4 32.8 48 -9.4 15
16:50 1010 29.83 839 24.78 0.4 32.6 47 -9.8 14.4
16:55 1010 29.83 839 24.78 0.2 32.4 49 -9.3 15.3
17:00 1010 29.83 839 24.78 -0.3 31.4 49 -9.8 14.3
17:05 1010 29.83 839 24.78 0.5 33 46 -9.8 14.4
17:10 1010 29.83 839 24.78 1.1 33.9 45 -9.6 14.7
17:15 1010 29.83 840 24.81 0.7 33.2 48 -9 15.8
17:20 1010 29.83 840 24.81 0.1 32.2 49 -9.3 15.3
17:25 1010 29.83 840 24.81 -0.1 31.8 51 -9.1 15.7
17:30 1010 29.83 840 24.81 -0.5 31.1 52 -9.1 15.7
17:35 1011 29.85 840 24.81 -0.7 30.7 54 -9 15.8
17:40 1011 29.85 840 24.81 -0.9 30.4 54 -9 15.7
17:45 1011 29.85 840 24.81 -0.7 30.7 54 -9 15.7
17:50 1011 29.85 840 24.81 -0.8 30.5 54 -9.1 15.6
17:55 1011 29.85 840 24.81 -0.9 30.5 54 -9.1 15.7
18:00 1011 29.85 840 24.81 -0.9 30.3 58 -8.3 17.1
18:05 1011 29.85 840 24.81 -1.5 29.3 59 -8.6 16.5
18:10 1011 29.85 840 24.81 -1.6 29.1 58 -8.8 16.2
18:15 1011 29.85 840 24.81 -1.7 29 60 -8.6 16.6
18:20 1011 29.85 840 24.81 -1.9 28.7 59 -8.8 16.2
18:25 1011 29.85 840 24.81 -1.9 28.6 60 -8.7 16.4
18:30 1011 29.85 840 24.81 -1.9 28.6 59 -8.9 15.9
18:35 1011 29.85 840 24.81 -1.8 28.7 58 -9 15.8
18:40 1011 29.85 840 24.81 -1.6 29.1 58 -8.8 16.2
18:45 1011 29.85 840 24.81 -1.5 29.4 58 -8.8 16.2
18:50 1011 29.85 840 24.81 -1.4 29.6 57 -8.8 16.2
18:55 1011 29.85 840 24.81 -1.3 29.6 58 -8.6 16.4
19:00 1011 29.85 840 24.81 -1.4 29.5 58 -8.6 16.6
19:05 1011 29.85 841 24.83 -1.4 29.4 59 -8.4 16.9
19:10 1011 29.85 841 24.83 -1.4 29.4 59 -8.4 16.8
19:15 1011 29.85 841 24.83 -1.5 29.4 59 -8.4 16.8
19:20 1011 29.85 841 24.83 -1.5 29.4 59 -8.4 16.9
19:25 1011 29.85 841 24.83 -1.5 29.3 59 -8.5 16.7
19:30 1012 29.88 841 24.83 -1.5 29.3 59 -8.5 16.7
19:35 1012 29.88 841 24.83 -1.5 29.3 60 -8.3 17
19:40 1012 29.88 841 24.83 -1.6 29.2 61 -8.2 17.3
19:45 1012 29.88 841 24.83 -1.6 29.1 62 -8 17.5
19:50 1012 29.88 841 24.83 -1.7 29 63 -7.8 17.9
19:55 1012 29.88 841 24.83 -1.8 28.8 64 -7.7 18.2
20:00 1012 29.88 841 24.83 -1.8 28.7 65 -7.5 18.5
20:05 1012 29.88 841 24.83 -1.9 28.5 66 -7.4 18.7
20:10 1012 29.88 841 24.83 -1.9 28.5 68 -7.1 19.3
20:15 1012 29.88 841 24.83 -2 28.3 70 -6.9 19.6
20:20 1012 29.88 841 24.83 -2.2 28.1 73 -6.4 20.5
20:25 1012 29.88 841 24.83 -2.4 27.7 76 -6.1 21.1
20:30 1012 29.88 841 24.83 -2.6 27.3 78 -5.8 21.5
20:35 1012 29.88 841 24.83 -2.7 27.1 80 -5.7 21.7
20:40 1012 29.88 841 24.83 -2.9 26.8 81 -5.7 21.8
20:45 1012 29.88 841 24.83 -3 26.6 82 -5.6 21.9
20:50 1012 29.88 842 24.86 -3.1 26.5 83 -5.5 22.1
20:55 1012 29.88 842 24.86 -3.1 26.5 84 -5.4 22.3
21:00 1012 29.88 842 24.86 -3 26.6 85 -5.3 22.5
21:05 1012 29.88 842 24.86 -3 26.6 85 -5.2 22.7
21:10 1012 29.88 842 24.86 -3.1 26.4 86 -5.1 22.8
21:15 1013 29.91 842 24.86 -3.1 26.3 87 -5 23.1
21:20 1013 29.91 842 24.86 -3.2 26.3 88 -4.8 23.3
21:25 1013 29.91 842 24.86 -3.2 26.3 89 -4.7 23.5
21:30 1013 29.91 842 24.86 -3.3 26 91 -4.6 23.7
21:35 1013 29.91 842 24.86 -3.4 26 92 -4.5 23.9
21:40 1013 29.91 842 24.86 -3.4 26 92 -4.5 24
21:45 1013 29.91 842 24.86 -3.4 25.9 92 -4.4 24
21:50 1013 29.91 842 24.86 -3.3 26 92 -4.4 24
21:55 1013 29.91 842 24.86 -3.4 25.9 92 -4.4 24
22:00 1013 29.91 842 24.86 -3.4 25.9 93 -4.4 24.1
22:05 1013 29.91 842 24.86 -3.4 25.9 93 -4.4 24.1
22:10 1013 29.91 842 24.86 -3.4 25.9 93 -4.4 24.1
22:15 1013 29.91 842 24.86 -3.4 25.9 93 -4.4 24.1
22:20 1013 29.91 842 24.86 -3.4 25.8 93 -4.4 24.1
22:25 1013 29.91 842 24.86 -3.5 25.8 93 -4.4 24.1
22:30 1013 29.91 842 24.86 -3.4 25.8 93 -4.4 24.1
22:35 1013 29.91 842 24.86 -3.4 25.8 93 -4.4 24.1
22:40 1013 29.91 842 24.86 -3.4 25.8 93 -4.4 24.1
22:45 1013 29.91 842 24.86 -3.4 25.8 93 -4.4 24.1
22:50 1013 29.91 842 24.86 -3.4 25.8 93 -4.4 24.1
22:55 1013 29.91 842 24.86 -3.5 25.8 93 -4.4 24.1
23:00 1013 29.91 842 24.86 -3.4 25.8 93 -4.4 24.1
23:05 1013 29.91 842 24.86 -3.5 25.8 93 -4.4 24
23:10 1013 29.91 842 24.86 -3.5 25.7 93 -4.5 24
23:15 1013 29.91 843 24.89 -3.5 25.6 94 -4.4 24
23:20 1013 29.91 843 24.89 -3.6 25.6 94 -4.4 24
23:25 1013 29.91 843 24.89 -3.5 25.6 94 -4.4 24
23:30 1013 29.91 843 24.89 -3.6 25.6 93 -4.5 24
23:35 1013 29.91 843 24.89 -3.6 25.5 94 -4.5 23.9
23:40 1013 29.91 843 24.89 -3.6 25.4 93 -4.6 23.8
23:45 1013 29.91 843 24.89 -3.7 25.4 93 -4.6 23.7
23:50 1014 29.94 843 24.89 -3.7 25.4 94 -4.6 23.8
23:55 1014 29.94 843 24.89 -3.7 25.3 94 -4.6 23.7
24:00 1014 29.94 843 24.89 -3.7 25.3 94 -4.6 23.7